sensor_id;sensor_type;location;lat;lon;timestamp;pressure;altitude;pressure_sealevel;temperature;humidity
28701;BME280;15877;52.344;16.790;2024-01-10T00:00:56;102602.15;;;-3.73;57.21
28701;BME280;15877;52.344;16.790;2024-01-10T00:03:48;102601.86;;;-3.70;57.13
28701;BME280;15877;52.344;16.790;2024-01-10T00:06:20;102604.27;;;-3.69;56.79
28701;BME280;15877;52.344;16.790;2024-01-10T00:08:54;102603.52;;;-3.72;56.99
28701;BME280;15877;52.344;16.790;2024-01-10T00:11:27;102595.89;;;-3.73;57.09
28701;BME280;15877;52.344;16.790;2024-01-10T00:14:04;102590.92;;;-3.79;57.19
28701;BME280;15877;52.344;16.790;2024-01-10T00:16:36;102586.46;;;-3.77;57.37
28701;BME280;15877;52.344;16.790;2024-01-10T00:19:09;102586.93;;;-3.76;57.36
28701;BME280;15877;52.344;16.790;2024-01-10T00:21:41;102582.31;;;-3.79;57.33
28701;BME280;15877;52.344;16.790;2024-01-10T00:24:14;102575.40;;;-3.77;57.28
28701;BME280;15877;52.344;16.790;2024-01-10T00:26:46;102570.54;;;-3.74;57.31
28701;BME280;15877;52.344;16.790;2024-01-10T00:29:18;102566.03;;;-3.75;57.13
28701;BME280;15877;52.344;16.790;2024-01-10T00:31:50;102562.61;;;-3.77;57.17
28701;BME280;15877;52.344;16.790;2024-01-10T00:34:23;102560.83;;;-3.78;57.12
28701;BME280;15877;52.344;16.790;2024-01-10T00:36:56;102565.04;;;-3.77;56.98
28701;BME280;15877;52.344;16.790;2024-01-10T00:39:28;102564.76;;;-3.78;56.94
28701;BME280;15877;52.344;16.790;2024-01-10T00:42:00;102561.95;;;-3.77;57.04
28701;BME280;15877;52.344;16.790;2024-01-10T00:44:33;102553.21;;;-3.76;57.10
28701;BME280;15877;52.344;16.790;2024-01-10T00:47:06;102559.22;;;-3.76;57.02
28701;BME280;15877;52.344;16.790;2024-01-10T00:49:38;102560.23;;;-3.77;57.14
28701;BME280;15877;52.344;16.790;2024-01-10T00:52:10;102558.95;;;-3.78;57.29
28701;BME280;15877;52.344;16.790;2024-01-10T00:54:43;102556.27;;;-3.77;57.37
28701;BME280;15877;52.344;16.790;2024-01-10T00:57:16;102559.96;;;-3.81;57.68
28701;BME280;15877;52.344;16.790;2024-01-10T00:59:48;102556.05;;;-3.78;57.76
28701;BME280;15877;52.344;16.790;2024-01-10T01:02:21;102550.50;;;-3.77;57.98
28701;BME280;15877;52.344;16.790;2024-01-10T01:04:53;102555.67;;;-3.75;58.18
28701;BME280;15877;52.344;16.790;2024-01-10T01:07:27;102553.21;;;-3.76;58.31
28701;BME280;15877;52.344;16.790;2024-01-10T01:09:59;102551.36;;;-3.75;58.43
28701;BME280;15877;52.344;16.790;2024-01-10T01:12:31;102559.56;;;-3.71;58.33
28701;BME280;15877;52.344;16.790;2024-01-10T01:15:05;102546.80;;;-3.80;58.10
28701;BME280;15877;52.344;16.790;2024-01-10T01:17:38;102566.25;;;-3.76;57.99
28701;BME280;15877;52.344;16.790;2024-01-10T01:20:11;102567.04;;;-3.76;57.83
28701;BME280;15877;52.344;16.790;2024-01-10T01:22:43;102572.95;;;-3.73;57.68
28701;BME280;15877;52.344;16.790;2024-01-10T01:25:16;102575.80;;;-3.74;57.37
28701;BME280;15877;52.344;16.790;2024-01-10T01:27:48;102577.46;;;-3.73;57.46
28701;BME280;15877;52.344;16.790;2024-01-10T01:30:20;102579.05;;;-3.72;57.44
28701;BME280;15877;52.344;16.790;2024-01-10T01:32:53;102575.20;;;-3.72;57.29
28701;BME280;15877;52.344;16.790;2024-01-10T01:35:26;102569.08;;;-3.74;57.25
28701;BME280;15877;52.344;16.790;2024-01-10T01:37:58;102570.88;;;-3.75;57.21
28701;BME280;15877;52.344;16.790;2024-01-10T01:40:31;102570.84;;;-3.77;57.58
28701;BME280;15877;52.344;16.790;2024-01-10T01:43:09;102577.20;;;-3.76;57.58
28701;BME280;15877;52.344;16.790;2024-01-10T01:45:47;102574.27;;;-3.76;57.52
28701;BME280;15877;52.344;16.790;2024-01-10T01:48:23;102572.52;;;-3.76;57.50
28701;BME280;15877;52.344;16.790;2024-01-10T01:50:58;102570.52;;;-3.75;57.51
28701;BME280;15877;52.344;16.790;2024-01-10T01:53:32;102564.27;;;-3.75;57.55
28701;BME280;15877;52.344;16.790;2024-01-10T01:56:07;102564.08;;;-3.77;57.68
28701;BME280;15877;52.344;16.790;2024-01-10T01:58:40;102565.58;;;-3.78;57.84
28701;BME280;15877;52.344;16.790;2024-01-10T02:01:12;102568.84;;;-3.75;57.81
28701;BME280;15877;52.344;16.790;2024-01-10T02:03:45;102568.88;;;-3.75;58.05
28701;BME280;15877;52.344;16.790;2024-01-10T02:06:18;102563.15;;;-3.82;58.32
28701;BME280;15877;52.344;16.790;2024-01-10T02:08:50;102565.27;;;-3.80;58.75
28701;BME280;15877;52.344;16.790;2024-01-10T02:11:23;102564.83;;;-3.82;58.91
28701;BME280;15877;52.344;16.790;2024-01-10T02:13:55;102564.68;;;-3.80;58.88
28701;BME280;15877;52.344;16.790;2024-01-10T02:16:27;102565.28;;;-3.77;58.52
28701;BME280;15877;52.344;16.790;2024-01-10T02:18:59;102561.08;;;-3.79;58.29
28701;BME280;15877;52.344;16.790;2024-01-10T02:21:32;102555.73;;;-3.79;58.07
28701;BME280;15877;52.344;16.790;2024-01-10T02:24:04;102553.66;;;-3.81;58.06
28701;BME280;15877;52.344;16.790;2024-01-10T02:26:37;102551.23;;;-3.79;58.02
28701;BME280;15877;52.344;16.790;2024-01-10T02:29:10;102546.28;;;-3.78;57.76
28701;BME280;15877;52.344;16.790;2024-01-10T02:31:42;102545.49;;;-3.77;57.78
28701;BME280;15877;52.344;16.790;2024-01-10T02:34:15;102541.33;;;-3.80;57.79
28701;BME280;15877;52.344;16.790;2024-01-10T02:36:47;102534.98;;;-3.81;57.74
28701;BME280;15877;52.344;16.790;2024-01-10T02:39:19;102534.02;;;-3.82;57.48
28701;BME280;15877;52.344;16.790;2024-01-10T02:41:51;102534.77;;;-3.84;57.70
28701;BME280;15877;52.344;16.790;2024-01-10T02:44:24;102520.20;;;-3.95;57.71
28701;BME280;15877;52.344;16.790;2024-01-10T02:46:56;102535.90;;;-3.86;57.45
28701;BME280;15877;52.344;16.790;2024-01-10T02:49:28;102528.55;;;-3.87;57.35
28701;BME280;15877;52.344;16.790;2024-01-10T02:52:00;102530.85;;;-3.89;57.30
28701;BME280;15877;52.344;16.790;2024-01-10T02:54:32;102530.61;;;-3.90;57.31
28701;BME280;15877;52.344;16.790;2024-01-10T02:57:04;102525.14;;;-3.91;57.20
28701;BME280;15877;52.344;16.790;2024-01-10T02:59:36;102519.52;;;-3.94;57.23
28701;BME280;15877;52.344;16.790;2024-01-10T03:02:08;102516.14;;;-3.95;57.20
28701;BME280;15877;52.344;16.790;2024-01-10T03:04:41;102511.34;;;-3.95;57.24
28701;BME280;15877;52.344;16.790;2024-01-10T03:07:13;102512.61;;;-3.96;57.21
28701;BME280;15877;52.344;16.790;2024-01-10T03:09:45;102514.70;;;-3.99;57.54
28701;BME280;15877;52.344;16.790;2024-01-10T03:12:18;102519.63;;;-3.98;57.69
28701;BME280;15877;52.344;16.790;2024-01-10T03:14:50;102526.52;;;-4.00;57.57
28701;BME280;15877;52.344;16.790;2024-01-10T03:17:22;102526.35;;;-3.98;57.65
28701;BME280;15877;52.344;16.790;2024-01-10T03:19:54;102524.29;;;-3.96;57.59
28701;BME280;15877;52.344;16.790;2024-01-10T03:22:27;102516.42;;;-3.94;57.62
28701;BME280;15877;52.344;16.790;2024-01-10T03:24:59;102512.80;;;-3.94;57.54
28701;BME280;15877;52.344;16.790;2024-01-10T03:27:31;102511.20;;;-3.94;57.43
28701;BME280;15877;52.344;16.790;2024-01-10T03:30:05;102509.39;;;-3.97;57.39
28701;BME280;15877;52.344;16.790;2024-01-10T03:32:38;102509.80;;;-3.97;57.56
28701;BME280;15877;52.344;16.790;2024-01-10T03:35:12;102508.21;;;-3.98;57.80
28701;BME280;15877;52.344;16.790;2024-01-10T03:37:44;102512.19;;;-3.97;57.71
28701;BME280;15877;52.344;16.790;2024-01-10T03:40:16;102514.45;;;-3.97;57.66
28701;BME280;15877;52.344;16.790;2024-01-10T03:42:49;102512.36;;;-3.97;57.63
28701;BME280;15877;52.344;16.790;2024-01-10T03:45:21;102491.04;;;-4.08;57.61
28701;BME280;15877;52.344;16.790;2024-01-10T03:47:54;102511.39;;;-3.97;57.72
28701;BME280;15877;52.344;16.790;2024-01-10T03:50:26;102509.73;;;-3.98;57.71
28701;BME280;15877;52.344;16.790;2024-01-10T03:52:58;102501.69;;;-4.01;57.51
28701;BME280;15877;52.344;16.790;2024-01-10T03:55:30;102503.52;;;-4.00;57.58
28701;BME280;15877;52.344;16.790;2024-01-10T03:58:03;102504.85;;;-3.98;57.37
28701;BME280;15877;52.344;16.790;2024-01-10T04:00:35;102509.28;;;-3.99;57.15
28701;BME280;15877;52.344;16.790;2024-01-10T04:03:08;102495.27;;;-4.09;57.67
28701;BME280;15877;52.344;16.790;2024-01-10T04:05:42;102506.48;;;-3.98;57.70
28701;BME280;15877;52.344;16.790;2024-01-10T04:08:14;102500.81;;;-3.96;57.70
28701;BME280;15877;52.344;16.790;2024-01-10T04:10:48;102502.45;;;-3.96;57.71
28701;BME280;15877;52.344;16.790;2024-01-10T04:13:21;102481.91;;;-4.10;57.70
28701;BME280;15877;52.344;16.790;2024-01-10T04:15:53;102498.98;;;-3.97;57.67
28701;BME280;15877;52.344;16.790;2024-01-10T04:18:25;102499.85;;;-3.96;57.73
28701;BME280;15877;52.344;16.790;2024-01-10T04:20:58;102498.19;;;-3.95;57.80
28701;BME280;15877;52.344;16.790;2024-01-10T04:23:32;102497.79;;;-3.93;57.81
28701;BME280;15877;52.344;16.790;2024-01-10T04:26:05;102498.05;;;-3.94;58.15
28701;BME280;15877;52.344;16.790;2024-01-10T04:28:38;102500.26;;;-3.93;58.34
28701;BME280;15877;52.344;16.790;2024-01-10T04:31:12;102494.60;;;-3.91;58.32
28701;BME280;15877;52.344;16.790;2024-01-10T04:33:44;102489.26;;;-3.92;58.21
28701;BME280;15877;52.344;16.790;2024-01-10T04:36:16;102488.21;;;-3.91;58.13
28701;BME280;15877;52.344;16.790;2024-01-10T04:38:49;102490.77;;;-3.92;58.21
28701;BME280;15877;52.344;16.790;2024-01-10T04:41:21;102492.88;;;-3.91;58.25
28701;BME280;15877;52.344;16.790;2024-01-10T04:43:53;102487.23;;;-3.94;58.19
28701;BME280;15877;52.344;16.790;2024-01-10T04:46:25;102484.86;;;-3.90;57.92
28701;BME280;15877;52.344;16.790;2024-01-10T04:48:58;102489.86;;;-3.88;57.88
28701;BME280;15877;52.344;16.790;2024-01-10T04:51:30;102484.40;;;-3.89;57.68
28701;BME280;15877;52.344;16.790;2024-01-10T04:54:02;102489.25;;;-3.92;57.78
28701;BME280;15877;52.344;16.790;2024-01-10T04:56:34;102486.92;;;-3.92;57.76
28701;BME280;15877;52.344;16.790;2024-01-10T04:59:07;102490.89;;;-3.93;57.79
28701;BME280;15877;52.344;16.790;2024-01-10T05:01:39;102489.31;;;-3.93;57.65
28701;BME280;15877;52.344;16.790;2024-01-10T05:04:11;102487.57;;;-3.94;57.50
28701;BME280;15877;52.344;16.790;2024-01-10T05:06:43;102467.09;;;-4.06;57.33
28701;BME280;15877;52.344;16.790;2024-01-10T05:09:16;102487.77;;;-3.99;57.34
28701;BME280;15877;52.344;16.790;2024-01-10T05:11:48;102479.50;;;-3.99;57.24
28701;BME280;15877;52.344;16.790;2024-01-10T05:14:22;102482.30;;;-4.01;57.37
28701;BME280;15877;52.344;16.790;2024-01-10T05:16:54;102481.35;;;-4.02;57.53
28701;BME280;15877;52.344;16.790;2024-01-10T05:19:26;102478.52;;;-4.02;57.42
28701;BME280;15877;52.344;16.790;2024-01-10T05:21:58;102476.02;;;-4.04;57.48
28701;BME280;15877;52.344;16.790;2024-01-10T05:24:34;102478.63;;;-4.02;57.44
28701;BME280;15877;52.344;16.790;2024-01-10T05:27:06;102472.30;;;-4.03;57.47
28701;BME280;15877;52.344;16.790;2024-01-10T05:29:39;102473.51;;;-4.04;57.44
28701;BME280;15877;52.344;16.790;2024-01-10T05:32:11;102473.14;;;-4.05;57.46
28701;BME280;15877;52.344;16.790;2024-01-10T05:34:43;102468.59;;;-4.05;57.48
28701;BME280;15877;52.344;16.790;2024-01-10T05:37:16;102466.13;;;-4.04;57.64
28701;BME280;15877;52.344;16.790;2024-01-10T05:39:48;102461.05;;;-4.04;57.56
28701;BME280;15877;52.344;16.790;2024-01-10T05:42:21;102458.79;;;-4.07;57.58
28701;BME280;15877;52.344;16.790;2024-01-10T05:44:53;102460.38;;;-4.07;57.60
28701;BME280;15877;52.344;16.790;2024-01-10T05:47:25;102443.37;;;-4.20;57.51
28701;BME280;15877;52.344;16.790;2024-01-10T05:49:57;102457.30;;;-4.09;57.59
28701;BME280;15877;52.344;16.790;2024-01-10T05:52:31;102456.84;;;-4.10;57.46
28701;BME280;15877;52.344;16.790;2024-01-10T05:55:05;102458.67;;;-4.09;57.66
28701;BME280;15877;52.344;16.790;2024-01-10T05:57:39;102453.69;;;-4.12;57.82
28701;BME280;15877;52.344;16.790;2024-01-10T06:00:14;102460.85;;;-4.10;57.68
28701;BME280;15877;52.344;16.790;2024-01-10T06:02:47;102459.45;;;-4.08;57.63
28701;BME280;15877;52.344;16.790;2024-01-10T06:05:20;102465.61;;;-4.10;57.60
28701;BME280;15877;52.344;16.790;2024-01-10T06:07:52;102462.59;;;-4.09;57.46
28701;BME280;15877;52.344;16.790;2024-01-10T06:10:25;102455.21;;;-4.09;57.52
28701;BME280;15877;52.344;16.790;2024-01-10T06:12:57;102453.27;;;-4.08;57.45
28701;BME280;15877;52.344;16.790;2024-01-10T06:15:29;102449.02;;;-4.09;57.27
28701;BME280;15877;52.344;16.790;2024-01-10T06:18:02;102450.70;;;-4.09;57.47
28701;BME280;15877;52.344;16.790;2024-01-10T06:20:34;102452.85;;;-4.09;57.62
28701;BME280;15877;52.344;16.790;2024-01-10T06:23:07;102450.73;;;-4.09;57.60
28701;BME280;15877;52.344;16.790;2024-01-10T06:25:40;102451.84;;;-4.12;57.57
28701;BME280;15877;52.344;16.790;2024-01-10T06:28:12;102435.04;;;-4.21;57.44
28701;BME280;15877;52.344;16.790;2024-01-10T06:30:45;102452.21;;;-4.11;57.43
28701;BME280;15877;52.344;16.790;2024-01-10T06:33:17;102450.95;;;-4.11;57.47
28701;BME280;15877;52.344;16.790;2024-01-10T06:35:50;102448.53;;;-4.10;57.45
28701;BME280;15877;52.344;16.790;2024-01-10T06:38:23;102446.05;;;-4.08;57.32
28701;BME280;15877;52.344;16.790;2024-01-10T06:40:56;102451.05;;;-4.11;57.50
28701;BME280;15877;52.344;16.790;2024-01-10T06:43:29;102446.71;;;-4.11;57.59
28701;BME280;15877;52.344;16.790;2024-01-10T06:46:01;102456.91;;;-4.08;57.62
28701;BME280;15877;52.344;16.790;2024-01-10T06:48:34;102454.04;;;-4.08;57.55
28701;BME280;15877;52.344;16.790;2024-01-10T06:51:13;102431.11;;;-4.15;57.77
28701;BME280;15877;52.344;16.790;2024-01-10T06:53:45;102445.75;;;-4.05;58.04
28701;BME280;15877;52.344;16.790;2024-01-10T06:56:18;102455.40;;;-4.06;58.12
28701;BME280;15877;52.344;16.790;2024-01-10T06:58:50;102457.91;;;-4.08;58.35
28701;BME280;15877;52.344;16.790;2024-01-10T07:01:22;102453.88;;;-4.05;58.31
28701;BME280;15877;52.344;16.790;2024-01-10T07:03:55;102453.70;;;-4.02;58.00
28701;BME280;15877;52.344;16.790;2024-01-10T07:06:27;102454.34;;;-4.03;58.12
28701;BME280;15877;52.344;16.790;2024-01-10T07:08:59;102454.02;;;-4.01;58.45
28701;BME280;15877;52.344;16.790;2024-01-10T07:11:32;102447.77;;;-4.00;58.29
28701;BME280;15877;52.344;16.790;2024-01-10T07:14:04;102452.31;;;-3.99;58.13
28701;BME280;15877;52.344;16.790;2024-01-10T07:16:37;102450.02;;;-4.00;58.32
28701;BME280;15877;52.344;16.790;2024-01-10T07:19:13;102456.02;;;-4.00;58.17
28701;BME280;15877;52.344;16.790;2024-01-10T07:21:46;102455.95;;;-4.00;58.21
28701;BME280;15877;52.344;16.790;2024-01-10T07:24:18;102457.34;;;-3.96;58.20
28701;BME280;15877;52.344;16.790;2024-01-10T07:26:50;102449.60;;;-3.95;58.36
28701;BME280;15877;52.344;16.790;2024-01-10T07:29:23;102443.30;;;-4.00;58.28
28701;BME280;15877;52.344;16.790;2024-01-10T07:31:55;102439.09;;;-4.03;58.41
28701;BME280;15877;52.344;16.790;2024-01-10T07:34:28;102424.51;;;-4.07;58.37
28701;BME280;15877;52.344;16.790;2024-01-10T07:37:00;102437.86;;;-3.94;58.31
28701;BME280;15877;52.344;16.790;2024-01-10T07:39:33;102440.09;;;-3.92;58.06
28701;BME280;15877;52.344;16.790;2024-01-10T07:42:06;102437.25;;;-3.90;58.06
28701;BME280;15877;52.344;16.790;2024-01-10T07:44:39;102440.29;;;-3.90;58.18
28701;BME280;15877;52.344;16.790;2024-01-10T07:47:11;102438.98;;;-3.87;58.07
28701;BME280;15877;52.344;16.790;2024-01-10T07:49:43;102440.77;;;-3.87;58.11
28701;BME280;15877;52.344;16.790;2024-01-10T07:52:15;102438.41;;;-3.88;58.49
28701;BME280;15877;52.344;16.790;2024-01-10T07:54:49;102424.17;;;-3.94;58.41
28701;BME280;15877;52.344;16.790;2024-01-10T07:57:21;102439.61;;;-3.83;58.55
28701;BME280;15877;52.344;16.790;2024-01-10T07:59:54;102443.77;;;-3.80;58.68
28701;BME280;15877;52.344;16.790;2024-01-10T08:02:26;102449.05;;;-3.77;59.01
28701;BME280;15877;52.344;16.790;2024-01-10T08:04:58;102449.52;;;-3.74;58.99
28701;BME280;15877;52.344;16.790;2024-01-10T08:07:31;102452.22;;;-3.71;58.94
28701;BME280;15877;52.344;16.790;2024-01-10T08:10:05;102456.77;;;-3.70;58.85
28701;BME280;15877;52.344;16.790;2024-01-10T08:12:37;102457.01;;;-3.68;58.40
28701;BME280;15877;52.344;16.790;2024-01-10T08:15:10;102462.91;;;-3.63;58.52
28701;BME280;15877;52.344;16.790;2024-01-10T08:17:42;102466.33;;;-3.62;58.93
28701;BME280;15877;52.344;16.790;2024-01-10T08:20:16;102464.76;;;-3.60;59.22
28701;BME280;15877;52.344;16.790;2024-01-10T08:22:52;102469.54;;;-3.62;59.50
28701;BME280;15877;52.344;16.790;2024-01-10T08:25:24;102473.58;;;-3.55;59.14
28701;BME280;15877;52.344;16.790;2024-01-10T08:27:57;102476.41;;;-3.50;58.78
28701;BME280;15877;52.344;16.790;2024-01-10T08:30:30;102479.44;;;-3.45;58.67
28701;BME280;15877;52.344;16.790;2024-01-10T08:33:04;102482.71;;;-3.44;58.68
28701;BME280;15877;52.344;16.790;2024-01-10T08:35:36;102485.11;;;-3.40;58.50
28701;BME280;15877;52.344;16.790;2024-01-10T08:38:10;102489.20;;;-3.38;58.85
28701;BME280;15877;52.344;16.790;2024-01-10T08:40:42;102486.81;;;-3.34;59.17
28701;BME280;15877;52.344;16.790;2024-01-10T08:43:14;102494.79;;;-3.28;59.24
28701;BME280;15877;52.344;16.790;2024-01-10T08:45:49;102494.11;;;-3.23;59.33
28701;BME280;15877;52.344;16.790;2024-01-10T08:48:25;102492.45;;;-3.23;59.50
28701;BME280;15877;52.344;16.790;2024-01-10T08:50:57;102491.33;;;-3.19;59.30
28701;BME280;15877;52.344;16.790;2024-01-10T08:53:30;102491.89;;;-3.10;59.00
28701;BME280;15877;52.344;16.790;2024-01-10T08:56:02;102492.00;;;-3.03;59.48
28701;BME280;15877;52.344;16.790;2024-01-10T08:58:35;102488.23;;;-3.02;59.49
28701;BME280;15877;52.344;16.790;2024-01-10T09:01:08;102493.98;;;-2.92;58.79
28701;BME280;15877;52.344;16.790;2024-01-10T09:03:41;102490.70;;;-2.86;58.53
28701;BME280;15877;52.344;16.790;2024-01-10T09:06:13;102487.27;;;-2.82;58.42
28701;BME280;15877;52.344;16.790;2024-01-10T09:08:45;102464.33;;;-2.90;59.02
28701;BME280;15877;52.344;16.790;2024-01-10T09:11:17;102488.64;;;-2.75;58.87
28701;BME280;15877;52.344;16.790;2024-01-10T09:13:49;102479.02;;;-2.67;58.68
28701;BME280;15877;52.344;16.790;2024-01-10T09:16:22;102478.95;;;-2.62;58.55
28701;BME280;15877;52.344;16.790;2024-01-10T09:18:54;102471.77;;;-2.60;58.54
28701;BME280;15877;52.344;16.790;2024-01-10T09:21:28;102478.78;;;-2.55;58.98
28701;BME280;15877;52.344;16.790;2024-01-10T09:24:00;102478.71;;;-2.46;59.14
28701;BME280;15877;52.344;16.790;2024-01-10T09:26:51;102476.62;;;-2.39;58.80
28701;BME280;15877;52.344;16.790;2024-01-10T09:29:25;102471.74;;;-2.31;59.02
28701;BME280;15877;52.344;16.790;2024-01-10T09:31:58;102472.91;;;-2.31;59.42
28701;BME280;15877;52.344;16.790;2024-01-10T09:34:30;102472.89;;;-2.29;58.70
28701;BME280;15877;52.344;16.790;2024-01-10T09:37:03;102476.35;;;-2.14;58.63
28701;BME280;15877;52.344;16.790;2024-01-10T09:39:35;102473.89;;;-2.07;58.84
28701;BME280;15877;52.344;16.790;2024-01-10T09:42:08;102467.75;;;-2.00;58.83
28701;BME280;15877;52.344;16.790;2024-01-10T09:44:40;102468.20;;;-1.97;59.36
28701;BME280;15877;52.344;16.790;2024-01-10T09:47:14;102468.16;;;-1.95;59.39
28701;BME280;15877;52.344;16.790;2024-01-10T09:49:48;102470.72;;;-1.89;59.44
28701;BME280;15877;52.344;16.790;2024-01-10T09:52:26;102470.21;;;-1.77;59.08
28701;BME280;15877;52.344;16.790;2024-01-10T09:55:00;102461.91;;;-1.72;58.77
28701;BME280;15877;52.344;16.790;2024-01-10T09:57:32;102453.74;;;-1.65;58.80
28701;BME280;15877;52.344;16.790;2024-01-10T10:00:06;102453.39;;;-1.64;58.98
28701;BME280;15877;52.344;16.790;2024-01-10T10:02:42;102453.81;;;-1.58;58.73
28701;BME280;15877;52.344;16.790;2024-01-10T10:05:16;102451.84;;;-1.52;58.27
28701;BME280;15877;52.344;16.790;2024-01-10T10:07:50;102454.09;;;-1.40;57.26
28701;BME280;15877;52.344;16.790;2024-01-10T10:10:24;102449.88;;;-1.36;56.80
28701;BME280;15877;52.344;16.790;2024-01-10T10:12:57;102448.59;;;-1.29;56.66
28701;BME280;15877;52.344;16.790;2024-01-10T10:15:30;102444.63;;;-1.14;56.41
28701;BME280;15877;52.344;16.790;2024-01-10T10:18:04;102418.21;;;-1.38;56.11
28701;BME280;15877;52.344;16.790;2024-01-10T10:20:36;102446.25;;;-1.17;55.97
28701;BME280;15877;52.344;16.790;2024-01-10T10:23:09;102442.49;;;-1.00;55.73
28701;BME280;15877;52.344;16.790;2024-01-10T10:25:46;102436.70;;;-0.93;55.61
28701;BME280;15877;52.344;16.790;2024-01-10T10:28:20;102438.30;;;-0.88;55.79
28701;BME280;15877;52.344;16.790;2024-01-10T10:31:02;102435.17;;;-0.83;55.91
28701;BME280;15877;52.344;16.790;2024-01-10T10:33:35;102433.27;;;-0.71;55.64
28701;BME280;15877;52.344;16.790;2024-01-10T10:36:08;102435.17;;;-0.52;55.55
28701;BME280;15877;52.344;16.790;2024-01-10T10:38:41;102439.27;;;-0.52;55.79
28701;BME280;15877;52.344;16.790;2024-01-10T10:41:15;102433.44;;;-0.44;55.30
28701;BME280;15877;52.344;16.790;2024-01-10T10:43:48;102432.30;;;-0.32;55.22
28701;BME280;15877;52.344;16.790;2024-01-10T10:46:21;102432.70;;;-0.29;54.92
28701;BME280;15877;52.344;16.790;2024-01-10T10:48:59;102426.23;;;-0.21;54.89
28701;BME280;15877;52.344;16.790;2024-01-10T10:51:34;102421.36;;;-0.16;54.87
28701;BME280;15877;52.344;16.790;2024-01-10T10:54:09;102417.96;;;-0.13;54.30
28701;BME280;15877;52.344;16.790;2024-01-10T10:56:41;102412.62;;;-0.08;53.81
28701;BME280;15877;52.344;16.790;2024-01-10T10:59:16;102413.83;;;-0.00;53.29
28701;BME280;15877;52.344;16.790;2024-01-10T11:01:51;102408.33;;;0.06;52.63
28701;BME280;15877;52.344;16.790;2024-01-10T11:04:24;102403.19;;;0.13;52.48
28701;BME280;15877;52.344;16.790;2024-01-10T11:06:56;102404.18;;;0.20;52.36
28701;BME280;15877;52.344;16.790;2024-01-10T11:09:28;102403.42;;;0.30;52.73
28701;BME280;15877;52.344;16.790;2024-01-10T11:12:14;102407.40;;;0.41;53.11
28701;BME280;15877;52.344;16.790;2024-01-10T11:15:06;102407.48;;;0.43;52.52
28701;BME280;15877;52.344;16.790;2024-01-10T11:18:01;102404.64;;;0.60;52.18
28701;BME280;15877;52.344;16.790;2024-01-10T11:20:50;102398.83;;;0.71;51.64
28701;BME280;15877;52.344;16.790;2024-01-10T11:23:39;102398.41;;;0.76;51.53
28701;BME280;15877;52.344;16.790;2024-01-10T11:26:13;102391.77;;;0.82;51.32
28701;BME280;15877;52.344;16.790;2024-01-10T11:28:46;102392.38;;;0.86;50.86
28701;BME280;15877;52.344;16.790;2024-01-10T11:31:29;102393.16;;;0.91;49.57
28701;BME280;15877;52.344;16.790;2024-01-10T11:34:02;102387.74;;;0.99;48.57
28701;BME280;15877;52.344;16.790;2024-01-10T11:36:36;102372.35;;;0.97;48.40
28701;BME280;15877;52.344;16.790;2024-01-10T11:39:08;102368.80;;;1.00;47.75
28701;BME280;15877;52.344;16.790;2024-01-10T11:41:43;102382.42;;;1.19;49.02
28701;BME280;15877;52.344;16.790;2024-01-10T11:44:31;102383.06;;;1.26;49.94
28701;BME280;15877;52.344;16.790;2024-01-10T11:47:05;102382.28;;;1.28;49.62
28701;BME280;15877;52.344;16.790;2024-01-10T11:49:37;102377.17;;;1.33;49.13
28701;BME280;15877;52.344;16.790;2024-01-10T11:52:10;102364.25;;;1.28;49.16
28701;BME280;15877;52.344;16.790;2024-01-10T11:54:43;102374.59;;;1.40;48.66
28701;BME280;15877;52.344;16.790;2024-01-10T11:57:23;102367.67;;;1.40;48.18
28701;BME280;15877;52.344;16.790;2024-01-10T12:00:00;102368.36;;;1.42;48.28
28701;BME280;15877;52.344;16.790;2024-01-10T12:02:35;102364.89;;;1.41;47.79
28701;BME280;15877;52.344;16.790;2024-01-10T12:05:09;102363.09;;;1.45;48.71
28701;BME280;15877;52.344;16.790;2024-01-10T12:07:41;102356.02;;;1.46;49.16
28701;BME280;15877;52.344;16.790;2024-01-10T12:10:14;102354.75;;;1.50;49.39
28701;BME280;15877;52.344;16.790;2024-01-10T12:12:47;102352.00;;;1.54;49.04
28701;BME280;15877;52.344;16.790;2024-01-10T12:15:19;102348.82;;;1.58;49.18
28701;BME280;15877;52.344;16.790;2024-01-10T12:17:53;102346.33;;;1.66;48.10
28701;BME280;15877;52.344;16.790;2024-01-10T12:20:26;102341.63;;;1.67;46.90
28701;BME280;15877;52.344;16.790;2024-01-10T12:23:00;102344.71;;;1.64;46.51
28701;BME280;15877;52.344;16.790;2024-01-10T12:25:33;102342.30;;;1.70;47.09
28701;BME280;15877;52.344;16.790;2024-01-10T12:28:06;102335.10;;;1.73;46.45
28701;BME280;15877;52.344;16.790;2024-01-10T12:30:39;102331.55;;;1.67;45.45
28701;BME280;15877;52.344;16.790;2024-01-10T12:33:12;102333.20;;;1.69;46.01
28701;BME280;15877;52.344;16.790;2024-01-10T12:35:44;102329.73;;;1.66;46.19
28701;BME280;15877;52.344;16.790;2024-01-10T12:38:35;102327.70;;;1.72;46.87
28701;BME280;15877;52.344;16.790;2024-01-10T12:41:08;102327.37;;;1.77;46.76
28701;BME280;15877;52.344;16.790;2024-01-10T12:43:40;102326.20;;;1.76;46.05
28701;BME280;15877;52.344;16.790;2024-01-10T12:46:13;102323.42;;;1.77;46.63
28701;BME280;15877;52.344;16.790;2024-01-10T12:48:48;102319.77;;;1.80;47.23
28701;BME280;15877;52.344;16.790;2024-01-10T12:51:31;102318.27;;;1.78;47.59
28701;BME280;15877;52.344;16.790;2024-01-10T12:54:04;102315.36;;;1.77;46.75
28701;BME280;15877;52.344;16.790;2024-01-10T12:56:36;102316.38;;;1.79;46.61
28701;BME280;15877;52.344;16.790;2024-01-10T12:59:09;102320.23;;;1.83;46.71
28701;BME280;15877;52.344;16.790;2024-01-10T13:01:41;102296.05;;;1.69;46.87
28701;BME280;15877;52.344;16.790;2024-01-10T13:04:14;102317.02;;;1.84;47.45
28701;BME280;15877;52.344;16.790;2024-01-10T13:06:46;102314.18;;;1.74;47.16
28701;BME280;15877;52.344;16.790;2024-01-10T13:09:20;102310.45;;;1.79;46.58
28701;BME280;15877;52.344;16.790;2024-01-10T13:11:52;102293.15;;;1.69;46.31